createdAt,value
2023-04-20T00:00:01.490Z,7.3
2023-04-20T00:01:01.085Z,7.3
2023-04-20T00:02:01.779Z,7.3
2023-04-20T00:03:01.500Z,7.2
2023-04-20T00:04:00.988Z,7.2
2023-04-20T00:05:01.489Z,7.1
2023-04-20T00:06:01.111Z,7.2
2023-04-20T00:07:00.662Z,7.2
2023-04-20T00:08:01.250Z,7.1
2023-04-20T00:09:00.835Z,7.1
2023-04-20T00:10:01.421Z,7.1
2023-04-20T00:11:01.017Z,7.1
2023-04-20T00:12:01.595Z,7
2023-04-20T00:13:01.194Z,7
2023-04-20T00:14:00.779Z,7
2023-04-20T00:15:01.366Z,7.1
2023-04-20T00:16:00.957Z,7.1
2023-04-20T00:17:01.587Z,7.1
2023-04-20T00:18:01.237Z,7.2
2023-04-20T00:19:00.761Z,7.1
2023-04-20T00:20:01.343Z,7.2
2023-04-20T00:21:00.926Z,7.1
2023-04-20T00:22:01.624Z,7.1
2023-04-20T00:23:01.167Z,7.1
2023-04-20T00:24:00.721Z,7.1
2023-04-20T00:25:01.296Z,7.1
2023-04-20T00:26:00.875Z,7
2023-04-20T00:27:01.454Z,7
2023-04-20T00:28:01.053Z,7
2023-04-20T00:29:01.617Z,7
2023-04-20T00:30:01.230Z,6.9
2023-04-20T00:31:00.838Z,6.9
2023-04-20T00:32:01.420Z,6.9
2023-04-20T00:33:01.058Z,6.9
2023-04-20T00:34:01.610Z,6.9
2023-04-20T00:35:01.217Z,6.8
2023-04-20T00:36:00.812Z,6.8
2023-04-20T00:37:01.396Z,6.8
2023-04-20T00:38:01.027Z,6.8
2023-04-20T00:39:01.562Z,6.8
2023-04-20T00:40:01.143Z,6.8
2023-04-20T00:41:00.731Z,6.8
2023-04-20T00:42:01.304Z,6.7
2023-04-20T00:43:00.906Z,6.7
2023-04-20T00:44:01.477Z,6.7
2023-04-20T00:45:01.062Z,6.7
2023-04-20T00:46:01.687Z,6.6
2023-04-20T00:47:01.308Z,6.5
2023-04-20T00:48:00.908Z,6.5
2023-04-20T00:49:01.490Z,6.5
2023-04-20T00:50:01.087Z,6.5
2023-04-20T00:51:00.671Z,6.4
2023-04-20T00:52:01.234Z,6.4
2023-04-20T00:53:00.854Z,6.3
2023-04-20T00:54:01.435Z,6.4
2023-04-20T00:55:01.013Z,6.4
2023-04-20T00:56:01.596Z,6.4
2023-04-20T00:57:01.175Z,6.3
2023-04-20T00:58:00.773Z,6.3
2023-04-20T00:59:01.336Z,6.3
2023-04-20T01:00:00.931Z,6.3
2023-04-20T01:01:01.495Z,6.3
2023-04-20T01:02:01.226Z,6.3
2023-04-20T01:03:00.949Z,6.3
2023-04-20T01:04:01.325Z,6.2
2023-04-20T01:05:00.917Z,6.2
2023-04-20T01:06:01.475Z,6.2
2023-04-20T01:07:01.061Z,6.3
2023-04-20T01:08:01.659Z,6.2
2023-04-20T01:09:01.252Z,6.2
2023-04-20T01:10:01.010Z,6.1
2023-04-20T01:11:01.439Z,6.2
2023-04-20T01:12:01.041Z,6.2
2023-04-20T01:13:01.620Z,6.2
2023-04-20T01:14:01.222Z,6.2
2023-04-20T01:15:00.811Z,6.3
2023-04-20T01:16:01.480Z,6.3
2023-04-20T01:17:01.039Z,6.3
2023-04-20T01:18:01.694Z,6.3
2023-04-20T01:19:01.294Z,6.4
2023-04-20T01:20:00.872Z,6.4
2023-04-20T01:21:01.481Z,6.4
2023-04-20T01:22:01.065Z,6.4
2023-04-20T01:23:00.738Z,6.4
2023-04-20T01:24:01.240Z,6.5
2023-04-20T01:25:00.821Z,6.6
2023-04-20T01:26:01.450Z,6.5
2023-04-20T01:27:01.055Z,6.6
2023-04-20T01:28:01.618Z,6.6
2023-04-20T01:29:01.230Z,6.6
2023-04-20T01:30:00.839Z,6.6
2023-04-20T01:31:01.448Z,6.6
2023-04-20T01:32:01.043Z,6.6
2023-04-20T01:33:01.684Z,6.6
2023-04-20T01:34:01.272Z,6.6
2023-04-20T01:35:00.853Z,6.7
2023-04-20T01:36:01.444Z,6.6
2023-04-20T01:37:01.040Z,6.7
2023-04-20T01:38:01.639Z,6.7
2023-04-20T01:39:01.229Z,6.7
2023-04-20T01:40:00.868Z,6.8
2023-04-20T01:41:01.411Z,6.7
2023-04-20T01:42:01.032Z,6.8
2023-04-20T01:43:01.607Z,6.8
2023-04-20T01:44:01.205Z,6.8
2023-04-20T01:45:00.810Z,6.8
2023-04-20T01:46:01.393Z,6.8
2023-04-20T01:47:01.069Z,6.9
2023-04-20T01:48:01.629Z,6.8
2023-04-20T01:49:01.221Z,6.9
2023-04-20T01:50:00.795Z,6.9
2023-04-20T01:51:01.397Z,6.9
2023-04-20T01:52:01.036Z,6.9
2023-04-20T01:53:01.610Z,6.8
2023-04-20T01:54:01.223Z,6.9
2023-04-20T01:55:00.815Z,6.9
2023-04-20T01:56:01.406Z,6.9
2023-04-20T01:57:01.006Z,6.9
2023-04-20T01:58:01.631Z,6.9
2023-04-20T01:59:01.256Z,6.9
2023-04-20T02:00:00.816Z,6.9
2023-04-20T02:01:01.428Z,6.9
2023-04-20T02:02:01.065Z,6.9
2023-04-20T02:03:01.758Z,6.9
2023-04-20T02:04:01.610Z,6.9
2023-04-20T02:05:00.859Z,6.9
2023-04-20T02:06:01.451Z,6.9
2023-04-20T02:07:01.046Z,6.9
2023-04-20T02:08:01.630Z,6.9
2023-04-20T02:09:01.242Z,6.9
2023-04-20T02:10:00.847Z,6.9
2023-04-20T02:11:01.426Z,6.9
2023-04-20T02:12:01.016Z,6.9
2023-04-20T02:13:01.602Z,7
2023-04-20T02:14:01.257Z,7
2023-04-20T02:15:00.820Z,6.9
2023-04-20T02:16:01.408Z,6.9
2023-04-20T02:17:01.109Z,6.9
2023-04-20T02:18:01.706Z,7
2023-04-20T02:19:01.279Z,6.9
2023-04-20T02:20:00.804Z,7
2023-04-20T02:21:01.379Z,6.9
2023-04-20T02:22:00.975Z,6.9
2023-04-20T02:23:01.674Z,6.9
2023-04-20T02:24:01.215Z,6.9
2023-04-20T02:25:00.805Z,6.9
2023-04-20T02:26:01.369Z,6.9
2023-04-20T02:27:00.958Z,6.9
2023-04-20T02:28:01.545Z,6.9
2023-04-20T02:29:01.143Z,6.9
2023-04-20T02:30:00.794Z,6.9
2023-04-20T02:31:01.322Z,6.9
2023-04-20T02:32:00.924Z,6.9
2023-04-20T02:33:01.559Z,6.9
2023-04-20T02:34:01.166Z,6.9
2023-04-20T02:35:00.748Z,6.9
2023-04-20T02:36:01.319Z,6.9
2023-04-20T02:37:00.929Z,6.9
2023-04-20T02:38:01.502Z,6.9
2023-04-20T02:39:01.096Z,6.9
2023-04-20T02:40:00.681Z,6.9
2023-04-20T02:41:01.264Z,6.9
2023-04-20T02:42:00.866Z,6.9
2023-04-20T02:43:01.438Z,6.8
2023-04-20T02:44:01.038Z,6.9
2023-04-20T02:45:01.624Z,6.9
2023-04-20T02:46:01.402Z,6.9
2023-04-20T02:47:00.871Z,7
2023-04-20T02:48:01.449Z,7
2023-04-20T02:49:01.109Z,6.9
2023-04-20T02:50:01.643Z,6.9
2023-04-20T02:51:01.245Z,7
2023-04-20T02:52:00.842Z,6.9
2023-04-20T02:53:01.418Z,6.9
2023-04-20T02:54:01.040Z,6.9
2023-04-20T02:55:01.607Z,7
2023-04-20T02:56:01.201Z,7
2023-04-20T02:57:00.799Z,7
2023-04-20T02:58:01.366Z,7.1
2023-04-20T02:59:00.979Z,7
2023-04-20T03:00:01.553Z,7.1
2023-04-20T03:01:01.151Z,7
2023-04-20T03:02:00.815Z,7.1
2023-04-20T03:03:01.428Z,7.1
2023-04-20T03:04:01.108Z,7.1
2023-04-20T03:05:01.524Z,7.1
2023-04-20T03:06:01.112Z,7.1
2023-04-20T03:07:00.689Z,7.1
2023-04-20T03:08:01.271Z,7.1
2023-04-20T03:09:00.887Z,7.1
2023-04-20T03:10:01.476Z,7.1
2023-04-20T03:11:01.069Z,7.1
2023-04-20T03:12:01.637Z,7.1
2023-04-20T03:13:01.231Z,7.2
2023-04-20T03:14:00.884Z,7.1
2023-04-20T03:15:01.414Z,7.1
2023-04-20T03:16:01.057Z,7.1
2023-04-20T03:17:01.583Z,7.1
2023-04-20T03:18:01.253Z,7.2
2023-04-20T03:19:00.759Z,7.1
2023-04-20T03:20:01.350Z,7.1
2023-04-20T03:21:00.961Z,7.1
2023-04-20T03:22:01.561Z,7.1
2023-04-20T03:23:01.195Z,7.1
2023-04-20T03:24:00.833Z,7.1
2023-04-20T03:25:01.339Z,7
2023-04-20T03:26:00.957Z,7.1
2023-04-20T03:27:01.530Z,7.1
2023-04-20T03:28:01.161Z,7
2023-04-20T03:29:00.702Z,7
2023-04-20T03:30:01.270Z,7.1
2023-04-20T03:31:00.862Z,7
2023-04-20T03:32:01.477Z,7
2023-04-20T03:33:01.149Z,7.1
2023-04-20T03:34:00.697Z,7
2023-04-20T03:35:01.241Z,7
2023-04-20T03:36:00.878Z,7
2023-04-20T03:37:01.417Z,7
2023-04-20T03:38:01.043Z,7
2023-04-20T03:39:01.586Z,7
2023-04-20T03:40:01.186Z,6.9
2023-04-20T03:41:01.077Z,7
2023-04-20T03:42:01.365Z,6.9
2023-04-20T03:43:01.466Z,6.9
2023-04-20T03:44:01.468Z,6.9
2023-04-20T03:45:01.644Z,6.9
2023-04-20T03:46:01.404Z,6.9
2023-04-20T03:47:01.011Z,6.9
2023-04-20T03:48:01.666Z,6.9
2023-04-20T03:49:01.587Z,6.9
2023-04-20T03:50:00.870Z,6.9
2023-04-20T03:51:01.444Z,6.9
2023-04-20T03:52:01.047Z,6.9
2023-04-20T03:53:01.668Z,6.9
2023-04-20T03:54:01.263Z,6.9
2023-04-20T03:55:00.850Z,6.8
2023-04-20T03:56:01.452Z,6.8
2023-04-20T03:57:01.041Z,6.8
2023-04-20T03:58:01.619Z,6.8
2023-04-20T03:59:01.215Z,6.8
2023-04-20T04:00:00.818Z,6.8
2023-04-20T04:01:01.400Z,6.8
2023-04-20T04:02:01.022Z,6.8
2023-04-20T04:03:01.717Z,6.8
2023-04-20T04:04:01.429Z,6.8
2023-04-20T04:05:00.927Z,6.8
2023-04-20T04:06:01.481Z,6.8
2023-04-20T04:07:01.020Z,6.8
2023-04-20T04:08:01.599Z,6.8
2023-04-20T04:09:01.189Z,6.8
2023-04-20T04:10:00.793Z,6.8
2023-04-20T04:11:01.381Z,6.8
2023-04-20T04:12:00.972Z,6.8
2023-04-20T04:13:01.547Z,6.8
2023-04-20T04:14:01.179Z,6.7
2023-04-20T04:15:00.727Z,6.8
2023-04-20T04:16:01.303Z,6.8
2023-04-20T04:17:00.931Z,6.8
2023-04-20T04:18:01.491Z,6.8
2023-04-20T04:19:01.128Z,6.7
2023-04-20T04:20:01.678Z,6.8
2023-04-20T04:21:01.277Z,6.7
2023-04-20T04:22:00.972Z,6.7
2023-04-20T04:23:01.463Z,6.7
2023-04-20T04:24:01.058Z,6.7
2023-04-20T04:25:00.759Z,6.7
2023-04-20T04:26:01.215Z,6.7
2023-04-20T04:27:00.804Z,6.7
2023-04-20T04:28:01.384Z,6.7
2023-04-20T04:29:00.980Z,6.8
2023-04-20T04:30:01.581Z,6.7
2023-04-20T04:31:01.236Z,6.8
2023-04-20T04:32:00.775Z,6.7
2023-04-20T04:33:01.381Z,6.8
2023-04-20T04:34:01.009Z,6.7
2023-04-20T04:35:01.591Z,6.7
2023-04-20T04:36:01.214Z,6.7
2023-04-20T04:37:00.768Z,6.7
2023-04-20T04:38:01.377Z,6.7
2023-04-20T04:39:00.989Z,6.7
2023-04-20T04:40:01.558Z,6.7
2023-04-20T04:41:01.184Z,6.7
2023-04-20T04:42:00.935Z,6.7
2023-04-20T04:43:01.078Z,6.7
2023-04-20T04:44:00.670Z,6.7
2023-04-20T04:45:01.245Z,6.7
2023-04-20T04:46:00.904Z,6.7
2023-04-20T04:47:01.437Z,6.7
2023-04-20T04:48:01.120Z,6.7
2023-04-20T04:49:01.598Z,6.7
2023-04-20T04:50:01.181Z,6.7
2023-04-20T04:51:00.772Z,6.7
2023-04-20T04:52:01.357Z,6.7
2023-04-20T04:53:00.973Z,6.7
2023-04-20T04:54:01.568Z,6.7
2023-04-20T04:55:01.160Z,6.6
2023-04-20T04:56:00.731Z,6.7
2023-04-20T04:57:01.315Z,6.7
2023-04-20T04:58:00.921Z,6.7
2023-04-20T04:59:01.510Z,6.7
2023-04-20T05:00:01.098Z,6.7
2023-04-20T05:01:00.694Z,6.7
2023-04-20T05:02:01.305Z,6.8
2023-04-20T05:03:01.040Z,6.8
2023-04-20T05:04:01.709Z,6.8
2023-04-20T05:05:01.148Z,6.7
2023-04-20T05:06:00.738Z,6.7
2023-04-20T05:07:01.308Z,6.7
2023-04-20T05:08:00.940Z,6.8
2023-04-20T05:09:01.513Z,6.7
2023-04-20T05:10:01.135Z,6.7
2023-04-20T05:11:00.675Z,6.8
2023-04-20T05:12:01.248Z,6.7
2023-04-20T05:13:00.843Z,6.7
2023-04-20T05:14:01.433Z,6.7
2023-04-20T05:15:01.062Z,6.7
2023-04-20T05:16:01.633Z,6.7
2023-04-20T05:17:01.232Z,6.7
2023-04-20T05:18:00.837Z,6.7
2023-04-20T05:19:01.396Z,6.7
2023-04-20T05:20:01.020Z,6.8
2023-04-20T05:21:01.579Z,6.7
2023-04-20T05:22:01.170Z,6.6
2023-04-20T05:23:00.752Z,6.6
2023-04-20T05:24:01.342Z,6.6
2023-04-20T05:25:01.071Z,6.6
2023-04-20T05:26:01.574Z,6.6
2023-04-20T05:27:01.155Z,6.5
2023-04-20T05:28:00.723Z,6.5
2023-04-20T05:29:01.302Z,6.5
2023-04-20T05:30:12.945Z,6.5
2023-04-20T05:31:01.480Z,6.5
2023-04-20T05:32:01.161Z,6.5
2023-04-20T05:33:01.716Z,6.5
2023-04-20T05:34:01.338Z,6.5
2023-04-20T05:35:00.912Z,6.5
2023-04-20T05:36:01.472Z,6.5
2023-04-20T05:37:01.084Z,6.5
2023-04-20T05:38:01.640Z,6.6
2023-04-20T05:39:01.225Z,6.5
2023-04-20T05:40:00.837Z,6.4
2023-04-20T05:41:01.397Z,6.4
2023-04-20T05:42:01.104Z,6.4
2023-04-20T05:43:01.591Z,6.4
2023-04-20T05:44:01.200Z,6.4
2023-04-20T05:45:00.802Z,6.4
2023-04-20T05:46:01.389Z,6.5
2023-04-20T05:47:01.018Z,6.5
2023-04-20T05:48:01.656Z,6.4
2023-04-20T05:49:01.264Z,6.4
2023-04-20T05:50:00.869Z,6.3
2023-04-20T05:51:01.414Z,6.3
2023-04-20T05:52:01.019Z,6.3
2023-04-20T05:53:01.583Z,6.3
2023-04-20T05:54:01.175Z,6.2
2023-04-20T05:55:00.788Z,6.2
2023-04-20T05:56:01.351Z,6.1
2023-04-20T05:57:00.949Z,6
2023-04-20T05:58:01.587Z,5.9
2023-04-20T05:59:01.184Z,5.9
2023-04-20T06:00:00.777Z,5.9
2023-04-20T06:01:01.363Z,5.8
2023-04-20T06:02:00.982Z,5.8
2023-04-20T06:03:01.742Z,5.8
2023-04-20T06:04:01.421Z,5.8
2023-04-20T06:05:00.868Z,5.8
2023-04-20T06:06:01.358Z,5.8
2023-04-20T06:07:00.958Z,5.7
2023-04-20T06:08:01.544Z,5.5
2023-04-20T06:09:01.145Z,5.5
2023-04-20T06:10:00.724Z,5.5
2023-04-20T06:11:01.308Z,5.4
2023-04-20T06:12:00.896Z,5.4
2023-04-20T06:13:01.488Z,5.4
2023-04-20T06:14:01.157Z,5.4
2023-04-20T06:15:01.660Z,5.4
2023-04-20T06:16:01.275Z,5.4
2023-04-20T06:17:00.884Z,5.4
2023-04-20T06:18:01.547Z,5.4
2023-04-20T06:19:01.128Z,5.4
2023-04-20T06:20:00.711Z,5.5
2023-04-20T06:21:01.285Z,5.4
2023-04-20T06:22:01.331Z,5.4
2023-04-20T06:23:01.040Z,5.4
2023-04-20T06:24:01.634Z,5.4
2023-04-20T06:25:01.237Z,5.4
2023-04-20T06:26:00.908Z,5.4
2023-04-20T06:27:01.410Z,5.5
2023-04-20T06:28:01.025Z,5.4
2023-04-20T06:29:01.587Z,5.5
2023-04-20T06:30:01.212Z,5.5
2023-04-20T06:31:00.799Z,5.5
2023-04-20T06:32:01.342Z,5.5
2023-04-20T06:33:00.974Z,5.6
2023-04-20T06:34:01.528Z,5.5
2023-04-20T06:35:01.125Z,5.5
2023-04-20T06:36:00.704Z,5.5
2023-04-20T06:37:01.283Z,5.5
2023-04-20T06:38:00.882Z,5.5
2023-04-20T06:39:01.469Z,5.6
2023-04-20T06:40:01.055Z,5.5
2023-04-20T06:41:01.636Z,5.5
2023-04-20T06:42:01.226Z,5.5
2023-04-20T06:43:00.844Z,5.5
2023-04-20T06:44:01.406Z,5.6
2023-04-20T06:45:00.998Z,5.6
2023-04-20T06:46:01.656Z,5.7
2023-04-20T06:47:01.256Z,5.8
2023-04-20T06:48:00.877Z,5.8
2023-04-20T06:49:01.406Z,5.8
2023-04-20T06:50:01.008Z,5.8
2023-04-20T06:51:01.608Z,5.8
2023-04-20T06:52:01.249Z,5.9
2023-04-20T06:53:00.812Z,6
2023-04-20T06:54:01.397Z,6
2023-04-20T06:55:00.985Z,6.1
2023-04-20T06:56:01.582Z,6.3
2023-04-20T06:57:01.193Z,6.3
2023-04-20T06:58:00.790Z,6.4
2023-04-20T06:59:01.346Z,6.3
2023-04-20T07:00:00.969Z,6.3
2023-04-20T07:01:01.561Z,6.3
2023-04-20T07:02:01.670Z,6.3
2023-04-20T07:03:01.432Z,6.3
2023-04-20T07:04:01.260Z,6.3
2023-04-20T07:05:01.028Z,6.2
2023-04-20T07:06:01.529Z,6.3
2023-04-20T07:07:01.146Z,6.3
2023-04-20T07:08:00.727Z,6.3
2023-04-20T07:09:01.294Z,6.3
2023-04-20T07:10:00.905Z,6.2
2023-04-20T07:11:01.472Z,6.2
2023-04-20T07:12:01.060Z,6.2
2023-04-20T07:13:01.664Z,6.3
2023-04-20T07:14:01.264Z,6.4
2023-04-20T07:15:00.867Z,6.4
2023-04-20T07:16:01.494Z,6.5
2023-04-20T07:17:01.110Z,6.6
2023-04-20T07:18:00.725Z,6.7
2023-04-20T07:19:01.271Z,6.7
2023-04-20T07:20:00.862Z,6.6
2023-04-20T07:21:01.471Z,6.7
2023-04-20T07:22:01.062Z,6.7
2023-04-20T07:23:01.650Z,6.8
2023-04-20T07:24:01.248Z,6.8
2023-04-20T07:25:00.855Z,6.8
2023-04-20T07:26:01.522Z,6.8
2023-04-20T07:27:01.089Z,6.8
2023-04-20T07:28:00.676Z,6.8
2023-04-20T07:29:01.254Z,6.7
2023-04-20T07:30:00.841Z,6.8
2023-04-20T07:31:01.464Z,6.8
2023-04-20T07:32:01.118Z,6.7
2023-04-20T07:33:01.662Z,6.7
2023-04-20T07:34:01.307Z,6.8
2023-04-20T07:35:00.888Z,6.8
2023-04-20T07:36:01.486Z,6.9
2023-04-20T07:37:01.084Z,7
2023-04-20T07:38:00.671Z,7
2023-04-20T07:39:01.256Z,6.9
2023-04-20T07:40:00.843Z,6.9
2023-04-20T07:41:01.452Z,7.1
2023-04-20T07:42:01.045Z,6.8
2023-04-20T07:43:01.631Z,6.8
2023-04-20T07:44:01.220Z,6.9
2023-04-20T07:45:00.817Z,7
2023-04-20T07:46:01.553Z,7
2023-04-20T07:47:01.960Z,7
2023-04-20T07:48:01.123Z,7
2023-04-20T07:49:01.217Z,7.1
2023-04-20T07:50:00.833Z,7
2023-04-20T07:51:01.415Z,7
2023-04-20T07:52:09.563Z,7
2023-04-20T07:53:01.551Z,7
2023-04-20T07:54:01.169Z,6.9
2023-04-20T07:55:00.768Z,6.9
2023-04-20T07:56:01.325Z,6.9
2023-04-20T07:57:00.912Z,6.8
2023-04-20T07:58:01.497Z,6.8
2023-04-20T07:59:01.091Z,6.8
2023-04-20T08:00:00.698Z,6.8
2023-04-20T08:01:01.271Z,6.7
2023-04-20T08:02:00.962Z,6.7
2023-04-20T08:03:01.616Z,6.8
2023-04-20T08:04:01.343Z,6.8
2023-04-20T08:05:00.837Z,6.8
2023-04-20T08:06:01.533Z,6.8
2023-04-20T08:07:00.900Z,6.8
2023-04-20T08:08:01.515Z,6.9
2023-04-20T08:09:01.127Z,6.9
2023-04-20T08:10:00.695Z,6.9
2023-04-20T08:11:01.284Z,7
2023-04-20T08:12:00.885Z,7.1
2023-04-20T08:13:01.492Z,7.2
2023-04-20T08:14:01.086Z,7.2
2023-04-20T08:15:00.687Z,7.2
2023-04-20T08:16:01.270Z,7.2
2023-04-20T08:17:00.867Z,7.2
2023-04-20T08:18:01.494Z,7.1
2023-04-20T08:19:01.101Z,7
2023-04-20T08:20:00.683Z,7
2023-04-20T08:21:01.291Z,7
2023-04-20T08:22:01.378Z,6.9
2023-04-20T08:23:00.792Z,6.8
2023-04-20T08:24:01.390Z,6.8
2023-04-20T08:25:00.716Z,6.7
2023-04-20T08:26:01.322Z,6.7
2023-04-20T08:27:01.032Z,6.7
2023-04-20T08:28:01.748Z,6.7
2023-04-20T08:29:01.212Z,6.7
2023-04-20T08:30:00.799Z,6.7
2023-04-20T08:31:01.353Z,6.8
2023-04-20T08:32:01.086Z,6.8
2023-04-20T08:33:01.614Z,6.9
2023-04-20T08:34:01.239Z,7.1
2023-04-20T08:35:00.819Z,7.1
2023-04-20T08:36:01.413Z,7.1
2023-04-20T08:37:01.054Z,6.9
2023-04-20T08:38:01.753Z,6.9
2023-04-20T08:39:01.348Z,6.9
2023-04-20T08:40:00.899Z,6.9
2023-04-20T08:41:01.462Z,6.9
2023-04-20T08:42:01.053Z,6.9
2023-04-20T08:43:01.649Z,6.9
2023-04-20T08:44:01.272Z,6.9
2023-04-20T08:45:00.897Z,6.8
2023-04-20T08:46:01.478Z,6.8
2023-04-20T08:47:01.262Z,6.7
2023-04-20T08:48:00.707Z,6.6
2023-04-20T08:49:01.257Z,6.6
2023-04-20T08:50:00.874Z,6.5
2023-04-20T08:51:01.458Z,6.5
2023-04-20T08:52:01.048Z,6.4
2023-04-20T08:53:01.632Z,6.3
2023-04-20T08:54:01.323Z,6.3
2023-04-20T08:55:00.870Z,6.3
2023-04-20T08:56:01.474Z,6.3
2023-04-20T08:57:01.069Z,6.3
2023-04-20T08:58:01.640Z,6.2
2023-04-20T08:59:01.230Z,6.3
2023-04-20T09:00:00.864Z,6.4
2023-04-20T09:01:01.623Z,6.5
2023-04-20T09:02:01.133Z,6.4
2023-04-20T09:03:00.815Z,6.4
2023-04-20T09:04:01.451Z,6.4
2023-04-20T09:05:00.951Z,6.3
2023-04-20T09:06:01.536Z,6.4
2023-04-20T09:07:01.165Z,6.4
2023-04-20T09:08:00.716Z,6.7
2023-04-20T09:09:01.304Z,6.8
2023-04-20T09:10:01.032Z,6.9
2023-04-20T09:11:01.479Z,7.3
2023-04-20T09:12:01.089Z,7.5
2023-04-20T09:13:01.658Z,7.8
2023-04-20T09:14:01.249Z,7.8
2023-04-20T09:15:00.848Z,7.9
2023-04-20T09:16:01.457Z,8
2023-04-20T09:17:01.084Z,8.1
2023-04-20T09:18:01.672Z,8.2
2023-04-20T09:19:01.293Z,8.1
2023-04-20T09:20:00.888Z,8
2023-04-20T09:21:01.507Z,7.9
2023-04-20T09:22:01.129Z,7.9
2023-04-20T09:23:00.684Z,8
2023-04-20T09:24:01.280Z,8
2023-04-20T09:25:00.885Z,8
2023-04-20T09:26:01.495Z,7.9
2023-04-20T09:27:01.115Z,7.8
2023-04-20T09:28:00.784Z,7.8
2023-04-20T09:29:01.255Z,7.7
2023-04-20T09:30:00.845Z,8.3
2023-04-20T09:31:01.430Z,8.3
2023-04-20T09:32:01.045Z,8.3
2023-04-20T09:33:01.672Z,8.2
2023-04-20T09:34:01.322Z,8.5
2023-04-20T09:35:00.841Z,8.8
2023-04-20T09:36:01.425Z,8.8
2023-04-20T09:37:01.014Z,8.9
2023-04-20T09:38:01.619Z,8.9
2023-04-20T09:39:01.212Z,9
2023-04-20T09:40:00.824Z,9.1
2023-04-20T09:41:01.394Z,9.4
2023-04-20T09:42:01.015Z,9.5
2023-04-20T09:43:01.594Z,9.5
2023-04-20T09:44:01.189Z,9.4
2023-04-20T09:45:00.787Z,9.2
2023-04-20T09:46:01.444Z,8.9
2023-04-20T09:47:01.015Z,8.7
2023-04-20T09:48:01.647Z,8.7
2023-04-20T09:49:01.268Z,8.9
2023-04-20T09:50:10.644Z,8.9
2023-04-20T09:51:01.394Z,8.9
2023-04-20T09:52:00.991Z,9
2023-04-20T09:53:01.595Z,9.2
2023-04-20T09:54:01.213Z,9.3
2023-04-20T09:55:00.789Z,9.7
2023-04-20T09:56:01.352Z,9.7
2023-04-20T09:57:00.956Z,9.7
2023-04-20T09:58:01.685Z,9.7
2023-04-20T09:59:01.218Z,9.6
2023-04-20T10:00:00.804Z,9.6
2023-04-20T10:01:01.370Z,9.7
2023-04-20T10:02:01.027Z,9.5
2023-04-20T10:03:01.621Z,9.4
2023-04-20T10:04:01.374Z,9.4
2023-04-20T10:05:00.813Z,9.6
2023-04-20T10:06:01.380Z,9.8
2023-04-20T10:07:00.975Z,9.4
2023-04-20T10:08:01.560Z,9.4
2023-04-20T10:09:01.171Z,9.8
2023-04-20T10:10:00.753Z,9.9
2023-04-20T10:11:01.366Z,9.9
2023-04-20T10:12:00.975Z,9.6
2023-04-20T10:13:01.564Z,9.4
2023-04-20T10:14:01.204Z,9.2
2023-04-20T10:15:00.760Z,9.2
2023-04-20T10:16:01.363Z,9.2
2023-04-20T10:17:01.107Z,9.4
2023-04-20T10:18:01.568Z,9.4
2023-04-20T10:19:01.235Z,9.2
2023-04-20T10:20:00.788Z,8.9
2023-04-20T10:21:01.390Z,9.2
2023-04-20T10:22:00.977Z,9.1
2023-04-20T10:23:01.560Z,9
2023-04-20T10:24:01.165Z,9.1
2023-04-20T10:25:00.731Z,8.9
2023-04-20T10:26:01.366Z,9.2
2023-04-20T10:27:00.958Z,9.2
2023-04-20T10:28:01.674Z,9.2
2023-04-20T10:29:01.220Z,9.1
2023-04-20T10:30:00.884Z,9.3
2023-04-20T10:31:01.390Z,9.6
2023-04-20T10:32:01.007Z,9.7
2023-04-20T10:33:01.653Z,9.8
2023-04-20T10:34:01.285Z,9.6
2023-04-20T10:35:00.824Z,9.4
2023-04-20T10:36:01.409Z,9.4
2023-04-20T10:37:01.006Z,9.5
2023-04-20T10:38:01.640Z,9.7
2023-04-20T10:39:01.244Z,9.7
2023-04-20T10:40:00.834Z,9.8
2023-04-20T10:41:01.412Z,9.9
2023-04-20T10:42:01.008Z,10
2023-04-20T10:43:01.611Z,10.2
2023-04-20T10:44:01.197Z,9.9
2023-04-20T10:45:00.784Z,9.9
2023-04-20T10:46:01.415Z,9.8
2023-04-20T10:47:01.054Z,9.7
2023-04-20T10:48:01.637Z,9.6
2023-04-20T10:49:01.304Z,9.4
2023-04-20T10:50:00.878Z,9.5
2023-04-20T10:51:01.446Z,9.5
2023-04-20T10:52:01.046Z,9.7
2023-04-20T10:53:01.626Z,9.5
2023-04-20T10:54:01.219Z,9.5
2023-04-20T10:55:00.832Z,9.5
2023-04-20T10:56:01.394Z,9.6
2023-04-20T10:57:01.010Z,9.5
2023-04-20T10:58:01.615Z,9.5
2023-04-20T10:59:02.326Z,9.8
2023-04-20T11:00:00.990Z,10
2023-04-20T11:01:01.402Z,10
2023-04-20T11:02:01.071Z,10.1
2023-04-20T11:03:01.615Z,10.1
2023-04-20T11:04:01.266Z,10
2023-04-20T11:05:00.984Z,10
2023-04-20T11:06:01.634Z,9.8
2023-04-20T11:07:01.070Z,9.9
2023-04-20T11:08:01.663Z,10.3
2023-04-20T11:09:01.249Z,10.2
2023-04-20T11:10:00.860Z,10.2
2023-04-20T11:11:01.423Z,10.3
2023-04-20T11:12:01.017Z,10.4
2023-04-20T11:13:01.582Z,10.3
2023-04-20T11:14:01.168Z,10.4
2023-04-20T11:15:00.783Z,10.2
2023-04-20T11:16:01.361Z,10.3
2023-04-20T11:17:01.033Z,10.4
2023-04-20T11:18:01.682Z,10.3
2023-04-20T11:19:01.287Z,10.3
2023-04-20T11:20:00.848Z,10.3
2023-04-20T11:21:01.453Z,10.6
2023-04-20T11:22:01.103Z,10.8
2023-04-20T11:23:01.665Z,10.9
2023-04-20T11:24:01.252Z,11
2023-04-20T11:25:00.841Z,10.9
2023-04-20T11:26:01.463Z,10.8
2023-04-20T11:27:01.064Z,10.8
2023-04-20T11:28:01.648Z,10.7
2023-04-20T11:29:01.349Z,10.8
2023-04-20T11:30:00.877Z,10.8
2023-04-20T11:31:01.586Z,10.9
2023-04-20T11:32:01.309Z,11.3
2023-04-20T11:33:00.798Z,11.3
2023-04-20T11:34:01.318Z,11.3
2023-04-20T11:35:06.293Z,11.3
2023-04-20T11:36:01.493Z,11.3
2023-04-20T11:37:01.086Z,11
2023-04-20T11:38:01.673Z,11.1
2023-04-20T11:39:01.306Z,11.1
2023-04-20T11:40:00.895Z,11.2
2023-04-20T11:41:01.481Z,11.3
2023-04-20T11:42:01.075Z,11.3
2023-04-20T11:43:01.685Z,11.4
2023-04-20T11:44:01.275Z,11.2
2023-04-20T11:45:00.870Z,11.2
2023-04-20T11:46:01.512Z,11.1
2023-04-20T11:47:01.112Z,11
2023-04-20T11:48:00.720Z,10.9
2023-04-20T11:49:01.294Z,10.9
2023-04-20T11:50:00.917Z,10.8
2023-04-20T11:51:01.465Z,11
2023-04-20T11:52:01.069Z,10.9
2023-04-20T11:53:01.649Z,10.7
2023-04-20T11:54:01.292Z,10.4
2023-04-20T11:55:00.888Z,10.4
2023-04-20T11:56:01.472Z,10.1
2023-04-20T11:57:01.072Z,10.3
2023-04-20T11:58:01.647Z,10
2023-04-20T11:59:01.264Z,9.9
2023-04-20T12:00:00.865Z,9.8
2023-04-20T12:01:01.447Z,9.8
2023-04-20T12:02:01.252Z,9.8
2023-04-20T12:03:01.730Z,9.8
2023-04-20T12:04:01.809Z,9.9
2023-04-20T12:05:01.624Z,10.1
2023-04-20T12:06:01.299Z,10.3
2023-04-20T12:07:00.893Z,10.3
2023-04-20T12:08:01.498Z,10.6
2023-04-20T12:09:01.097Z,11
2023-04-20T12:10:01.678Z,11
2023-04-20T12:11:01.276Z,11.1
2023-04-20T12:12:00.869Z,11.1
2023-04-20T12:13:01.475Z,11.3
2023-04-20T12:14:01.066Z,11.4
2023-04-20T12:15:01.675Z,11.7
2023-04-20T12:16:01.419Z,11.6
2023-04-20T12:17:00.890Z,11.4
2023-04-20T12:18:01.537Z,11.4
2023-04-20T12:19:01.132Z,11.5
2023-04-20T12:20:00.728Z,11.8
2023-04-20T12:21:01.305Z,12
2023-04-20T12:22:00.932Z,12.2
2023-04-20T12:23:01.509Z,12.3
2023-04-20T12:24:01.106Z,12.2
2023-04-20T12:25:00.707Z,11.9
2023-04-20T12:26:01.270Z,11.8
2023-04-20T12:27:00.878Z,11.3
2023-04-20T12:28:01.458Z,11.3
2023-04-20T12:29:01.063Z,11.3
2023-04-20T12:30:00.724Z,11.2
2023-04-20T12:31:01.251Z,11.1
2023-04-20T12:32:00.914Z,11.3
2023-04-20T12:33:01.531Z,11.3
2023-04-20T12:34:01.127Z,11
2023-04-20T12:35:00.696Z,10.7
2023-04-20T12:36:01.273Z,10.6
2023-04-20T12:37:00.934Z,10.5
2023-04-20T12:38:01.650Z,10.6
2023-04-20T12:39:01.195Z,10.6
2023-04-20T12:40:00.744Z,10.6
2023-04-20T12:41:01.349Z,10.6
2023-04-20T12:42:00.946Z,10.6
2023-04-20T12:43:01.529Z,10.6
2023-04-20T12:44:02.773Z,10.7
2023-04-20T12:45:00.681Z,10.9
2023-04-20T12:46:01.321Z,11.2
2023-04-20T12:47:01.004Z,11.3
2023-04-20T12:48:01.527Z,11.5
2023-04-20T12:49:01.187Z,11.2
2023-04-20T12:50:00.777Z,11.2
2023-04-20T12:51:01.357Z,11.2
2023-04-20T12:52:01.000Z,11.2
2023-04-20T12:53:01.551Z,11.1
2023-04-20T12:54:01.174Z,10.9
2023-04-20T12:55:00.737Z,10.8
2023-04-20T12:56:01.639Z,10.9
2023-04-20T12:57:01.000Z,10.9
2023-04-20T12:58:01.574Z,11
2023-04-20T12:59:01.192Z,10.8
2023-04-20T13:00:00.759Z,11
2023-04-20T13:01:01.385Z,11.1
2023-04-20T13:02:01.023Z,11.2
2023-04-20T13:03:01.631Z,11.6
2023-04-20T13:04:01.582Z,11.7
2023-04-20T13:05:01.343Z,11.7
2023-04-20T13:06:00.937Z,11.7
2023-04-20T13:07:01.531Z,11.6
2023-04-20T13:08:01.695Z,11.6
2023-04-20T13:09:01.299Z,11.4
2023-04-20T13:10:00.926Z,11.2
2023-04-20T13:11:01.496Z,11.2
2023-04-20T13:12:01.089Z,11
2023-04-20T13:13:01.693Z,11
2023-04-20T13:14:01.299Z,11.2
2023-04-20T13:15:00.924Z,11.3
2023-04-20T13:16:01.495Z,11.7
2023-04-20T13:17:01.141Z,11.7
2023-04-20T13:18:00.694Z,11.8
2023-04-20T13:19:01.299Z,11.6
2023-04-20T13:20:00.911Z,11.7
2023-04-20T13:21:01.500Z,11.8
2023-04-20T13:22:01.085Z,11.6
2023-04-20T13:23:01.681Z,11.5
2023-04-20T13:24:01.304Z,11.6
2023-04-20T13:25:00.914Z,11.5
2023-04-20T13:26:01.591Z,11.8
2023-04-20T13:27:01.175Z,11.7
2023-04-20T13:28:00.708Z,11.4
2023-04-20T13:29:01.298Z,11.4
2023-04-20T13:30:00.986Z,11.2
2023-04-20T13:31:01.496Z,11.1
2023-04-20T13:32:01.157Z,11.1
2023-04-20T13:33:01.690Z,11.2
2023-04-20T13:34:01.293Z,11.2
2023-04-20T13:35:00.903Z,11.3
2023-04-20T13:36:01.473Z,11.3
2023-04-20T13:37:01.063Z,11.3
2023-04-20T13:38:01.647Z,11.5
2023-04-20T13:39:01.247Z,11.3
2023-04-20T13:40:00.890Z,11.1
2023-04-20T13:41:01.427Z,10.9
2023-04-20T13:42:01.071Z,11.2
2023-04-20T13:43:01.618Z,11.3
2023-04-20T13:44:01.219Z,11.4
2023-04-20T13:45:00.819Z,11.5